sensor_id;sensor_type;location;lat;lon;timestamp;P1;durP1;ratioP1;P2;durP2;ratioP2
7375;SDS011;3728;42.266;24.944;2023-03-12T00:01:13;3.37;;;1.77;;
7375;SDS011;3728;42.266;24.944;2023-03-12T00:03:47;4.73;;;2.00;;
7375;SDS011;3728;42.266;24.944;2023-03-12T00:06:16;2.00;;;1.80;;
7375;SDS011;3728;42.266;24.944;2023-03-12T00:08:45;2.20;;;2.00;;
7375;SDS011;3728;42.266;24.944;2023-03-12T00:11:16;2.83;;;2.10;;
7375;SDS011;3728;42.266;24.944;2023-03-12T00:13:49;2.63;;;1.47;;
7375;SDS011;3728;42.266;24.944;2023-03-12T00:16:19;1.83;;;1.57;;
7375;SDS011;3728;42.266;24.944;2023-03-12T00:18:48;1.27;;;1.23;;
7375;SDS011;3728;42.266;24.944;2023-03-12T00:21:18;3.33;;;1.83;;
7375;SDS011;3728;42.266;24.944;2023-03-12T00:23:47;2.20;;;1.50;;
7375;SDS011;3728;42.266;24.944;2023-03-12T00:26:16;1.70;;;1.60;;
7375;SDS011;3728;42.266;24.944;2023-03-12T00:28:46;2.73;;;1.50;;
7375;SDS011;3728;42.266;24.944;2023-03-12T00:31:22;2.93;;;1.67;;
7375;SDS011;3728;42.266;24.944;2023-03-12T00:33:54;1.80;;;1.60;;
7375;SDS011;3728;42.266;24.944;2023-03-12T00:36:23;2.90;;;1.93;;
7375;SDS011;3728;42.266;24.944;2023-03-12T00:38:57;1.70;;;1.60;;
7375;SDS011;3728;42.266;24.944;2023-03-12T00:41:27;2.43;;;1.60;;
7375;SDS011;3728;42.266;24.944;2023-03-12T00:43:55;3.87;;;1.77;;
7375;SDS011;3728;42.266;24.944;2023-03-12T00:46:23;2.70;;;1.77;;
7375;SDS011;3728;42.266;24.944;2023-03-12T00:48:51;1.80;;;1.57;;
7375;SDS011;3728;42.266;24.944;2023-03-12T00:51:18;2.27;;;1.40;;
7375;SDS011;3728;42.266;24.944;2023-03-12T00:53:46;5.00;;;1.43;;
7375;SDS011;3728;42.266;24.944;2023-03-12T00:56:14;2.40;;;1.53;;
7375;SDS011;3728;42.266;24.944;2023-03-12T00:58:41;1.73;;;1.40;;
7375;SDS011;3728;42.266;24.944;2023-03-12T01:01:09;1.90;;;1.50;;
7375;SDS011;3728;42.266;24.944;2023-03-12T01:03:37;2.07;;;1.40;;
7375;SDS011;3728;42.266;24.944;2023-03-12T01:06:05;2.50;;;1.60;;
7375;SDS011;3728;42.266;24.944;2023-03-12T01:08:32;4.50;;;1.43;;
7375;SDS011;3728;42.266;24.944;2023-03-12T01:11:00;2.40;;;1.50;;
7375;SDS011;3728;42.266;24.944;2023-03-12T01:13:28;7.10;;;1.70;;
7375;SDS011;3728;42.266;24.944;2023-03-12T01:15:56;3.30;;;1.60;;
7375;SDS011;3728;42.266;24.944;2023-03-12T01:18:23;3.57;;;1.40;;
7375;SDS011;3728;42.266;24.944;2023-03-12T01:20:51;2.67;;;1.77;;
7375;SDS011;3728;42.266;24.944;2023-03-12T01:23:19;1.87;;;1.47;;
7375;SDS011;3728;42.266;24.944;2023-03-12T01:25:46;5.27;;;1.63;;
7375;SDS011;3728;42.266;24.944;2023-03-12T01:28:14;3.90;;;1.67;;
7375;SDS011;3728;42.266;24.944;2023-03-12T01:30:42;4.60;;;1.87;;
7375;SDS011;3728;42.266;24.944;2023-03-12T01:33:10;1.83;;;1.37;;
7375;SDS011;3728;42.266;24.944;2023-03-12T01:35:38;5.07;;;1.90;;
7375;SDS011;3728;42.266;24.944;2023-03-12T01:38:08;2.50;;;1.30;;
7375;SDS011;3728;42.266;24.944;2023-03-12T01:40:41;7.03;;;1.87;;
7375;SDS011;3728;42.266;24.944;2023-03-12T01:43:21;4.50;;;2.00;;
7375;SDS011;3728;42.266;24.944;2023-03-12T01:46:21;6.50;;;1.87;;
7375;SDS011;3728;42.266;24.944;2023-03-12T01:51:21;1.90;;;1.80;;
7375;SDS011;3728;42.266;24.944;2023-03-12T01:53:56;2.90;;;1.70;;
7375;SDS011;3728;42.266;24.944;2023-03-12T01:56:31;5.80;;;1.90;;
7375;SDS011;3728;42.266;24.944;2023-03-12T01:59:05;4.83;;;1.77;;
7375;SDS011;3728;42.266;24.944;2023-03-12T02:01:39;3.63;;;1.63;;
7375;SDS011;3728;42.266;24.944;2023-03-12T02:04:08;2.73;;;1.57;;
7375;SDS011;3728;42.266;24.944;2023-03-12T02:06:42;2.53;;;1.47;;
7375;SDS011;3728;42.266;24.944;2023-03-12T02:09:36;7.40;;;2.20;;
7375;SDS011;3728;42.266;24.944;2023-03-12T02:12:11;2.77;;;1.83;;
7375;SDS011;3728;42.266;24.944;2023-03-12T02:14:39;2.13;;;1.70;;
7375;SDS011;3728;42.266;24.944;2023-03-12T02:17:08;7.97;;;2.03;;
7375;SDS011;3728;42.266;24.944;2023-03-12T02:22:36;3.07;;;1.83;;
7375;SDS011;3728;42.266;24.944;2023-03-12T02:25:25;3.20;;;2.17;;
7375;SDS011;3728;42.266;24.944;2023-03-12T02:28:05;2.97;;;1.70;;
7375;SDS011;3728;42.266;24.944;2023-03-12T02:30:36;3.23;;;1.80;;
7375;SDS011;3728;42.266;24.944;2023-03-12T02:33:09;2.57;;;1.70;;
7375;SDS011;3728;42.266;24.944;2023-03-12T02:35:37;6.07;;;1.90;;
7375;SDS011;3728;42.266;24.944;2023-03-12T02:41:03;2.93;;;1.47;;
7375;SDS011;3728;42.266;24.944;2023-03-12T02:46:53;2.13;;;1.93;;
7375;SDS011;3728;42.266;24.944;2023-03-12T02:49:26;6.73;;;2.17;;
7375;SDS011;3728;42.266;24.944;2023-03-12T02:51:58;2.63;;;2.13;;
7375;SDS011;3728;42.266;24.944;2023-03-12T02:54:27;3.27;;;1.93;;
7375;SDS011;3728;42.266;24.944;2023-03-12T02:56:55;2.20;;;2.00;;
7375;SDS011;3728;42.266;24.944;2023-03-12T02:59:24;4.13;;;2.17;;
7375;SDS011;3728;42.266;24.944;2023-03-12T03:01:56;4.77;;;2.00;;
7375;SDS011;3728;42.266;24.944;2023-03-12T03:04:27;3.33;;;2.10;;
7375;SDS011;3728;42.266;24.944;2023-03-12T03:06:56;5.57;;;2.30;;
7375;SDS011;3728;42.266;24.944;2023-03-12T03:09:24;4.57;;;2.30;;
7375;SDS011;3728;42.266;24.944;2023-03-12T03:11:52;2.83;;;2.53;;
7375;SDS011;3728;42.266;24.944;2023-03-12T03:14:21;3.87;;;2.40;;
7375;SDS011;3728;42.266;24.944;2023-03-12T03:16:49;3.97;;;2.63;;
7375;SDS011;3728;42.266;24.944;2023-03-12T03:19:20;8.13;;;3.00;;
7375;SDS011;3728;42.266;24.944;2023-03-12T03:21:48;3.70;;;2.70;;
7375;SDS011;3728;42.266;24.944;2023-03-12T03:24:16;4.13;;;3.00;;
7375;SDS011;3728;42.266;24.944;2023-03-12T03:26:43;7.60;;;2.67;;
7375;SDS011;3728;42.266;24.944;2023-03-12T03:29:11;3.73;;;2.90;;
7375;SDS011;3728;42.266;24.944;2023-03-12T03:31:39;4.03;;;3.23;;
7375;SDS011;3728;42.266;24.944;2023-03-12T03:34:06;4.63;;;3.50;;
7375;SDS011;3728;42.266;24.944;2023-03-12T03:36:34;6.73;;;3.17;;
7375;SDS011;3728;42.266;24.944;2023-03-12T03:39:07;4.33;;;2.80;;
7375;SDS011;3728;42.266;24.944;2023-03-12T03:41:35;7.30;;;3.77;;
7375;SDS011;3728;42.266;24.944;2023-03-12T03:44:04;4.33;;;2.90;;
7375;SDS011;3728;42.266;24.944;2023-03-12T03:46:35;4.77;;;2.50;;
7375;SDS011;3728;42.266;24.944;2023-03-12T03:49:05;3.93;;;2.60;;
7375;SDS011;3728;42.266;24.944;2023-03-12T03:51:34;3.40;;;2.63;;
7375;SDS011;3728;42.266;24.944;2023-03-12T03:54:06;3.20;;;2.07;;
7375;SDS011;3728;42.266;24.944;2023-03-12T03:56:35;2.87;;;2.53;;
7375;SDS011;3728;42.266;24.944;2023-03-12T03:59:03;2.50;;;2.30;;
7375;SDS011;3728;42.266;24.944;2023-03-12T04:01:33;2.70;;;2.50;;
7375;SDS011;3728;42.266;24.944;2023-03-12T04:04:02;10.53;;;2.40;;
7375;SDS011;3728;42.266;24.944;2023-03-12T04:06:32;3.60;;;2.60;;
7375;SDS011;3728;42.266;24.944;2023-03-12T04:08:59;5.23;;;4.00;;
7375;SDS011;3728;42.266;24.944;2023-03-12T04:11:30;3.63;;;2.67;;
7375;SDS011;3728;42.266;24.944;2023-03-12T04:13:59;3.27;;;2.83;;
7375;SDS011;3728;42.266;24.944;2023-03-12T04:16:29;3.27;;;2.37;;
7375;SDS011;3728;42.266;24.944;2023-03-12T04:18:57;3.23;;;2.23;;
7375;SDS011;3728;42.266;24.944;2023-03-12T04:21:25;4.07;;;2.47;;
7375;SDS011;3728;42.266;24.944;2023-03-12T04:23:53;4.30;;;2.63;;
7375;SDS011;3728;42.266;24.944;2023-03-12T04:26:25;4.27;;;2.40;;
7375;SDS011;3728;42.266;24.944;2023-03-12T04:28:54;2.83;;;2.40;;
7375;SDS011;3728;42.266;24.944;2023-03-12T04:31:21;3.77;;;2.30;;
7375;SDS011;3728;42.266;24.944;2023-03-12T04:33:49;6.40;;;2.70;;
7375;SDS011;3728;42.266;24.944;2023-03-12T04:36:20;5.63;;;3.33;;
7375;SDS011;3728;42.266;24.944;2023-03-12T04:38:49;4.17;;;2.53;;
7375;SDS011;3728;42.266;24.944;2023-03-12T04:41:21;2.83;;;2.53;;
7375;SDS011;3728;42.266;24.944;2023-03-12T04:43:55;5.93;;;2.63;;
7375;SDS011;3728;42.266;24.944;2023-03-12T04:46:23;5.93;;;2.93;;
7375;SDS011;3728;42.266;24.944;2023-03-12T04:48:50;3.17;;;2.80;;
7375;SDS011;3728;42.266;24.944;2023-03-12T04:51:18;3.03;;;2.50;;
7375;SDS011;3728;42.266;24.944;2023-03-12T04:53:45;2.87;;;2.67;;
7375;SDS011;3728;42.266;24.944;2023-03-12T04:56:14;4.70;;;2.80;;
7375;SDS011;3728;42.266;24.944;2023-03-12T04:58:43;5.97;;;2.30;;
7375;SDS011;3728;42.266;24.944;2023-03-12T05:01:15;2.90;;;2.67;;
7375;SDS011;3728;42.266;24.944;2023-03-12T05:04:01;3.63;;;2.70;;
7375;SDS011;3728;42.266;24.944;2023-03-12T05:06:30;5.67;;;2.50;;
7375;SDS011;3728;42.266;24.944;2023-03-12T05:08:59;3.00;;;2.40;;
7375;SDS011;3728;42.266;24.944;2023-03-12T05:11:26;6.73;;;3.20;;
7375;SDS011;3728;42.266;24.944;2023-03-12T05:13:54;3.30;;;2.40;;
7375;SDS011;3728;42.266;24.944;2023-03-12T05:16:22;3.90;;;2.40;;
7375;SDS011;3728;42.266;24.944;2023-03-12T05:18:50;4.43;;;2.77;;
7375;SDS011;3728;42.266;24.944;2023-03-12T05:21:18;2.83;;;2.20;;
7375;SDS011;3728;42.266;24.944;2023-03-12T05:23:50;4.90;;;2.63;;
7375;SDS011;3728;42.266;24.944;2023-03-12T05:26:19;6.03;;;2.83;;
7375;SDS011;3728;42.266;24.944;2023-03-12T05:28:53;2.93;;;2.60;;
7375;SDS011;3728;42.266;24.944;2023-03-12T05:31:23;2.77;;;2.20;;
7375;SDS011;3728;42.266;24.944;2023-03-12T05:33:52;3.67;;;2.37;;
7375;SDS011;3728;42.266;24.944;2023-03-12T05:36:21;2.20;;;2.03;;
7375;SDS011;3728;42.266;24.944;2023-03-12T05:38:48;3.70;;;3.03;;
7375;SDS011;3728;42.266;24.944;2023-03-12T05:41:22;2.50;;;2.30;;
7375;SDS011;3728;42.266;24.944;2023-03-12T05:43:59;3.93;;;2.67;;
7375;SDS011;3728;42.266;24.944;2023-03-12T05:46:27;3.93;;;2.57;;
7375;SDS011;3728;42.266;24.944;2023-03-12T05:48:57;6.47;;;2.50;;
7375;SDS011;3728;42.266;24.944;2023-03-12T05:51:26;4.40;;;2.57;;
7375;SDS011;3728;42.266;24.944;2023-03-12T05:53:53;3.67;;;2.50;;
7375;SDS011;3728;42.266;24.944;2023-03-12T05:56:21;4.20;;;3.57;;
7375;SDS011;3728;42.266;24.944;2023-03-12T05:58:49;3.10;;;2.20;;
7375;SDS011;3728;42.266;24.944;2023-03-12T06:01:22;3.50;;;2.30;;
7375;SDS011;3728;42.266;24.944;2023-03-12T06:03:55;3.73;;;2.77;;
7375;SDS011;3728;42.266;24.944;2023-03-12T06:06:24;3.93;;;2.40;;
7375;SDS011;3728;42.266;24.944;2023-03-12T06:08:54;5.90;;;2.50;;
7375;SDS011;3728;42.266;24.944;2023-03-12T06:11:22;4.23;;;3.03;;
7375;SDS011;3728;42.266;24.944;2023-03-12T06:13:49;8.60;;;3.50;;
7375;SDS011;3728;42.266;24.944;2023-03-12T06:16:18;5.57;;;3.43;;
7375;SDS011;3728;42.266;24.944;2023-03-12T06:18:52;4.60;;;2.60;;
7375;SDS011;3728;42.266;24.944;2023-03-12T06:21:26;3.67;;;2.70;;
7375;SDS011;3728;42.266;24.944;2023-03-12T06:23:57;7.03;;;2.30;;
7375;SDS011;3728;42.266;24.944;2023-03-12T06:26:29;2.73;;;2.47;;
7375;SDS011;3728;42.266;24.944;2023-03-12T06:28:57;2.30;;;2.00;;
7375;SDS011;3728;42.266;24.944;2023-03-12T06:31:24;3.13;;;2.50;;
7375;SDS011;3728;42.266;24.944;2023-03-12T06:33:52;3.10;;;2.50;;
7375;SDS011;3728;42.266;24.944;2023-03-12T06:36:20;4.33;;;2.50;;
7375;SDS011;3728;42.266;24.944;2023-03-12T06:38:49;2.03;;;1.80;;
7375;SDS011;3728;42.266;24.944;2023-03-12T06:41:17;3.63;;;2.40;;
7375;SDS011;3728;42.266;24.944;2023-03-12T06:43:46;4.07;;;2.47;;
7375;SDS011;3728;42.266;24.944;2023-03-12T06:46:16;4.77;;;2.60;;
7375;SDS011;3728;42.266;24.944;2023-03-12T06:48:47;4.73;;;2.73;;
7375;SDS011;3728;42.266;24.944;2023-03-12T06:51:17;2.90;;;2.47;;
7375;SDS011;3728;42.266;24.944;2023-03-12T06:53:47;3.63;;;3.00;;
7375;SDS011;3728;42.266;24.944;2023-03-12T06:56:15;4.30;;;2.73;;
7375;SDS011;3728;42.266;24.944;2023-03-12T06:58:42;7.07;;;3.30;;
7375;SDS011;3728;42.266;24.944;2023-03-12T07:01:10;3.77;;;2.73;;
7375;SDS011;3728;42.266;24.944;2023-03-12T07:03:38;3.90;;;2.47;;
7375;SDS011;3728;42.266;24.944;2023-03-12T07:06:11;5.93;;;3.40;;
7375;SDS011;3728;42.266;24.944;2023-03-12T07:08:44;3.60;;;2.30;;
7375;SDS011;3728;42.266;24.944;2023-03-12T07:11:13;3.90;;;2.80;;
7375;SDS011;3728;42.266;24.944;2023-03-12T07:13:43;2.83;;;2.50;;
7375;SDS011;3728;42.266;24.944;2023-03-12T07:16:11;4.43;;;2.43;;
7375;SDS011;3728;42.266;24.944;2023-03-12T07:18:39;2.33;;;2.10;;
7375;SDS011;3728;42.266;24.944;2023-03-12T07:21:07;1.90;;;1.70;;
7375;SDS011;3728;42.266;24.944;2023-03-12T07:23:35;3.30;;;2.13;;
7375;SDS011;3728;42.266;24.944;2023-03-12T07:26:03;3.50;;;2.40;;
7375;SDS011;3728;42.266;24.944;2023-03-12T07:28:31;5.57;;;2.13;;
7375;SDS011;3728;42.266;24.944;2023-03-12T07:31:00;1.80;;;1.60;;
7375;SDS011;3728;42.266;24.944;2023-03-12T07:33:29;2.20;;;1.70;;
7375;SDS011;3728;42.266;24.944;2023-03-12T07:35:57;4.23;;;2.17;;
7375;SDS011;3728;42.266;24.944;2023-03-12T07:38:25;5.27;;;2.33;;
7375;SDS011;3728;42.266;24.944;2023-03-12T07:40:54;6.03;;;2.40;;
7375;SDS011;3728;42.266;24.944;2023-03-12T07:43:24;2.47;;;2.27;;
7375;SDS011;3728;42.266;24.944;2023-03-12T07:45:54;3.80;;;2.17;;
7375;SDS011;3728;42.266;24.944;2023-03-12T07:48:24;2.30;;;2.07;;
7375;SDS011;3728;42.266;24.944;2023-03-12T07:50:52;6.63;;;3.20;;
7375;SDS011;3728;42.266;24.944;2023-03-12T07:53:20;3.53;;;2.43;;
7375;SDS011;3728;42.266;24.944;2023-03-12T07:55:47;2.53;;;2.10;;
7375;SDS011;3728;42.266;24.944;2023-03-12T07:58:16;3.00;;;1.83;;
7375;SDS011;3728;42.266;24.944;2023-03-12T08:00:44;3.53;;;1.60;;
7375;SDS011;3728;42.266;24.944;2023-03-12T08:03:14;7.10;;;3.70;;
7375;SDS011;3728;42.266;24.944;2023-03-12T08:05:42;6.10;;;2.67;;
7375;SDS011;3728;42.266;24.944;2023-03-12T08:08:10;6.77;;;3.00;;
7375;SDS011;3728;42.266;24.944;2023-03-12T08:10:38;3.93;;;1.40;;
7375;SDS011;3728;42.266;24.944;2023-03-12T08:13:06;3.77;;;1.90;;
7375;SDS011;3728;42.266;24.944;2023-03-12T08:15:34;2.70;;;1.90;;
7375;SDS011;3728;42.266;24.944;2023-03-12T08:18:01;4.63;;;2.80;;
7375;SDS011;3728;42.266;24.944;2023-03-12T08:20:29;3.73;;;1.83;;
7375;SDS011;3728;42.266;24.944;2023-03-12T08:22:58;3.60;;;1.90;;
7375;SDS011;3728;42.266;24.944;2023-03-12T08:25:26;5.63;;;2.30;;
7375;SDS011;3728;42.266;24.944;2023-03-12T08:27:54;10.17;;;2.07;;
7375;SDS011;3728;42.266;24.944;2023-03-12T08:30:21;6.47;;;2.27;;
7375;SDS011;3728;42.266;24.944;2023-03-12T08:32:49;3.17;;;2.00;;
7375;SDS011;3728;42.266;24.944;2023-03-12T08:35:19;6.83;;;3.20;;
7375;SDS011;3728;42.266;24.944;2023-03-12T08:37:48;3.57;;;1.93;;
7375;SDS011;3728;42.266;24.944;2023-03-12T08:40:16;2.77;;;1.80;;
7375;SDS011;3728;42.266;24.944;2023-03-12T08:42:47;5.03;;;2.73;;
7375;SDS011;3728;42.266;24.944;2023-03-12T08:45:14;3.07;;;1.77;;
7375;SDS011;3728;42.266;24.944;2023-03-12T08:47:45;5.00;;;2.60;;
7375;SDS011;3728;42.266;24.944;2023-03-12T08:50:13;6.17;;;2.30;;
7375;SDS011;3728;42.266;24.944;2023-03-12T08:52:42;3.17;;;1.70;;
7375;SDS011;3728;42.266;24.944;2023-03-12T08:55:10;6.03;;;3.03;;
7375;SDS011;3728;42.266;24.944;2023-03-12T08:57:38;5.10;;;2.03;;
7375;SDS011;3728;42.266;24.944;2023-03-12T09:00:06;6.47;;;1.90;;
7375;SDS011;3728;42.266;24.944;2023-03-12T09:02:43;2.30;;;1.63;;
7375;SDS011;3728;42.266;24.944;2023-03-12T09:05:12;4.50;;;2.57;;
7375;SDS011;3728;42.266;24.944;2023-03-12T09:07:42;3.77;;;2.03;;
7375;SDS011;3728;42.266;24.944;2023-03-12T09:10:10;2.70;;;1.70;;
7375;SDS011;3728;42.266;24.944;2023-03-12T09:12:38;8.33;;;2.20;;
7375;SDS011;3728;42.266;24.944;2023-03-12T09:15:06;2.40;;;1.87;;
7375;SDS011;3728;42.266;24.944;2023-03-12T09:17:35;4.07;;;2.10;;
7375;SDS011;3728;42.266;24.944;2023-03-12T09:20:04;1.60;;;1.50;;
7375;SDS011;3728;42.266;24.944;2023-03-12T09:22:35;2.53;;;1.80;;
7375;SDS011;3728;42.266;24.944;2023-03-12T09:25:03;2.40;;;1.80;;
7375;SDS011;3728;42.266;24.944;2023-03-12T09:27:40;2.13;;;1.30;;
7375;SDS011;3728;42.266;24.944;2023-03-12T09:30:17;3.20;;;1.70;;
7375;SDS011;3728;42.266;24.944;2023-03-12T09:32:48;2.20;;;1.67;;
7375;SDS011;3728;42.266;24.944;2023-03-12T09:35:16;1.30;;;1.20;;
7375;SDS011;3728;42.266;24.944;2023-03-12T09:37:46;3.50;;;1.80;;
7375;SDS011;3728;42.266;24.944;2023-03-12T09:40:18;4.17;;;1.43;;
7375;SDS011;3728;42.266;24.944;2023-03-12T09:42:54;2.30;;;1.70;;
7375;SDS011;3728;42.266;24.944;2023-03-12T09:45:46;1.50;;;1.30;;
7375;SDS011;3728;42.266;24.944;2023-03-12T09:48:16;1.80;;;1.40;;
7375;SDS011;3728;42.266;24.944;2023-03-12T09:51:06;1.87;;;1.37;;
7375;SDS011;3728;42.266;24.944;2023-03-12T09:53:50;2.57;;;1.40;;
7375;SDS011;3728;42.266;24.944;2023-03-12T09:56:21;3.40;;;1.20;;
7375;SDS011;3728;42.266;24.944;2023-03-12T09:58:49;8.67;;;1.77;;
7375;SDS011;3728;42.266;24.944;2023-03-12T10:06:40;1.70;;;1.60;;
7375;SDS011;3728;42.266;24.944;2023-03-12T10:10:02;3.60;;;1.93;;
7375;SDS011;3728;42.266;24.944;2023-03-12T10:12:56;2.33;;;2.00;;
7375;SDS011;3728;42.266;24.944;2023-03-12T10:15:49;2.00;;;1.20;;
7375;SDS011;3728;42.266;24.944;2023-03-12T10:27:16;2.97;;;1.27;;
7375;SDS011;3728;42.266;24.944;2023-03-12T10:29:45;3.73;;;1.23;;
7375;SDS011;3728;42.266;24.944;2023-03-12T10:32:23;2.40;;;2.17;;
7375;SDS011;3728;42.266;24.944;2023-03-12T10:34:59;1.50;;;1.30;;
7375;SDS011;3728;42.266;24.944;2023-03-12T10:37:42;3.80;;;1.70;;
7375;SDS011;3728;42.266;24.944;2023-03-12T10:40:20;5.57;;;2.30;;
7375;SDS011;3728;42.266;24.944;2023-03-12T10:42:51;1.97;;;0.93;;
7375;SDS011;3728;42.266;24.944;2023-03-12T10:48:20;3.03;;;1.40;;
7375;SDS011;3728;42.266;24.944;2023-03-12T10:51:00;8.50;;;5.13;;
7375;SDS011;3728;42.266;24.944;2023-03-12T10:53:35;1.70;;;1.10;;
7375;SDS011;3728;42.266;24.944;2023-03-12T10:56:14;1.93;;;1.27;;
7375;SDS011;3728;42.266;24.944;2023-03-12T10:58:48;1.40;;;1.30;;
7375;SDS011;3728;42.266;24.944;2023-03-12T11:01:20;2.30;;;1.40;;
7375;SDS011;3728;42.266;24.944;2023-03-12T11:04:06;2.07;;;1.57;;
7375;SDS011;3728;42.266;24.944;2023-03-12T11:09:40;1.13;;;1.13;;
7375;SDS011;3728;42.266;24.944;2023-03-12T11:14:55;2.73;;;1.73;;
7375;SDS011;3728;42.266;24.944;2023-03-12T11:17:28;1.10;;;0.93;;
7375;SDS011;3728;42.266;24.944;2023-03-12T11:19:59;2.30;;;1.20;;
7375;SDS011;3728;42.266;24.944;2023-03-12T11:22:55;1.63;;;1.10;;
7375;SDS011;3728;42.266;24.944;2023-03-12T11:25:25;0.90;;;0.90;;
7375;SDS011;3728;42.266;24.944;2023-03-12T11:27:55;4.97;;;2.10;;
7375;SDS011;3728;42.266;24.944;2023-03-12T11:30:31;2.17;;;1.67;;
7375;SDS011;3728;42.266;24.944;2023-03-12T11:33:07;4.43;;;0.90;;
7375;SDS011;3728;42.266;24.944;2023-03-12T11:35:53;3.23;;;1.10;;
7375;SDS011;3728;42.266;24.944;2023-03-12T11:42:35;3.50;;;1.60;;
7375;SDS011;3728;42.266;24.944;2023-03-12T11:57:37;1.43;;;1.20;;
7375;SDS011;3728;42.266;24.944;2023-03-12T12:06:57;0.80;;;0.80;;
7375;SDS011;3728;42.266;24.944;2023-03-12T12:28:02;1.60;;;0.90;;
7375;SDS011;3728;42.266;24.944;2023-03-12T12:33:55;2.90;;;1.13;;
7375;SDS011;3728;42.266;24.944;2023-03-12T12:42:52;1.23;;;1.00;;
7375;SDS011;3728;42.266;24.944;2023-03-12T12:45:42;1.10;;;1.00;;
7375;SDS011;3728;42.266;24.944;2023-03-12T12:51:06;1.23;;;1.13;;
7375;SDS011;3728;42.266;24.944;2023-03-12T12:59:19;1.63;;;1.20;;
7375;SDS011;3728;42.266;24.944;2023-03-12T13:02:18;1.10;;;0.90;;
7375;SDS011;3728;42.266;24.944;2023-03-12T13:04:53;1.60;;;1.40;;
7375;SDS011;3728;42.266;24.944;2023-03-12T13:09:54;1.13;;;1.03;;
7375;SDS011;3728;42.266;24.944;2023-03-12T13:14:58;3.37;;;2.00;;
7375;SDS011;3728;42.266;24.944;2023-03-12T13:20:45;1.33;;;1.20;;
7375;SDS011;3728;42.266;24.944;2023-03-12T13:26:42;3.93;;;1.27;;
7375;SDS011;3728;42.266;24.944;2023-03-12T13:29:35;3.07;;;1.60;;
7375;SDS011;3728;42.266;24.944;2023-03-12T13:32:34;2.83;;;1.00;;
7375;SDS011;3728;42.266;24.944;2023-03-12T13:46:00;2.40;;;1.63;;
7375;SDS011;3728;42.266;24.944;2023-03-12T13:48:44;1.37;;;1.10;;
7375;SDS011;3728;42.266;24.944;2023-03-12T13:51:15;1.40;;;1.20;;
7375;SDS011;3728;42.266;24.944;2023-03-12T13:53:48;1.33;;;1.23;;
7375;SDS011;3728;42.266;24.944;2023-03-12T13:56:28;1.38;;;1.27;;
7375;SDS011;3728;42.266;24.944;2023-03-12T13:59:02;3.60;;;1.27;;
7375;SDS011;3728;42.266;24.944;2023-03-12T14:01:38;2.83;;;1.00;;
7375;SDS011;3728;42.266;24.944;2023-03-12T14:04:22;0.90;;;0.90;;
7375;SDS011;3728;42.266;24.944;2023-03-12T14:07:09;4.30;;;1.30;;
7375;SDS011;3728;42.266;24.944;2023-03-12T14:16:00;3.55;;;1.15;;
7375;SDS011;3728;42.266;24.944;2023-03-12T14:18:35;1.63;;;0.80;;
7375;SDS011;3728;42.266;24.944;2023-03-12T14:21:08;1.35;;;1.25;;
7375;SDS011;3728;42.266;24.944;2023-03-12T14:23:45;1.83;;;0.80;;
7375;SDS011;3728;42.266;24.944;2023-03-12T14:26:22;0.80;;;0.80;;
7375;SDS011;3728;42.266;24.944;2023-03-12T14:28:59;0.88;;;0.77;;
7375;SDS011;3728;42.266;24.944;2023-03-12T14:31:35;1.42;;;0.75;;
7375;SDS011;3728;42.266;24.944;2023-03-12T14:34:05;1.17;;;1.08;;
7375;SDS011;3728;42.266;24.944;2023-03-12T14:36:54;1.90;;;0.98;;
7375;SDS011;3728;42.266;24.944;2023-03-12T14:40:06;0.80;;;0.80;;
7375;SDS011;3728;42.266;24.944;2023-03-12T14:42:48;1.33;;;1.00;;
7375;SDS011;3728;42.266;24.944;2023-03-12T14:45:16;0.93;;;0.93;;
7375;SDS011;3728;42.266;24.944;2023-03-12T14:47:52;2.58;;;1.30;;
7375;SDS011;3728;42.266;24.944;2023-03-12T14:50:35;0.90;;;0.82;;
7375;SDS011;3728;42.266;24.944;2023-03-12T14:53:12;1.30;;;0.98;;
7375;SDS011;3728;42.266;24.944;2023-03-12T14:55:47;1.20;;;1.08;;
7375;SDS011;3728;42.266;24.944;2023-03-12T14:58:30;1.23;;;0.93;;
7375;SDS011;3728;42.266;24.944;2023-03-12T15:01:05;0.80;;;0.80;;
7375;SDS011;3728;42.266;24.944;2023-03-12T15:04:05;0.90;;;0.90;;
7375;SDS011;3728;42.266;24.944;2023-03-12T15:06:45;1.65;;;1.00;;
7375;SDS011;3728;42.266;24.944;2023-03-12T15:09:27;1.50;;;1.10;;
7375;SDS011;3728;42.266;24.944;2023-03-12T15:12:01;1.75;;;1.10;;
7375;SDS011;3728;42.266;24.944;2023-03-12T15:14:32;2.45;;;1.25;;
7375;SDS011;3728;42.266;24.944;2023-03-12T15:17:05;2.75;;;1.10;;
7375;SDS011;3728;42.266;24.944;2023-03-12T15:19:34;2.33;;;1.20;;
7375;SDS011;3728;42.266;24.944;2023-03-12T15:22:07;1.17;;;0.82;;
7375;SDS011;3728;42.266;24.944;2023-03-12T15:24:46;3.67;;;1.00;;
7375;SDS011;3728;42.266;24.944;2023-03-12T15:27:18;0.95;;;0.90;;
7375;SDS011;3728;42.266;24.944;2023-03-12T15:29:56;1.95;;;0.90;;
7375;SDS011;3728;42.266;24.944;2023-03-12T15:32:25;1.98;;;1.20;;
7375;SDS011;3728;42.266;24.944;2023-03-12T15:34:56;1.58;;;1.15;;
7375;SDS011;3728;42.266;24.944;2023-03-12T15:37:27;2.65;;;0.90;;
7375;SDS011;3728;42.266;24.944;2023-03-12T15:42:49;2.65;;;1.10;;
7375;SDS011;3728;42.266;24.944;2023-03-12T15:45:38;2.47;;;1.10;;
7375;SDS011;3728;42.266;24.944;2023-03-12T15:48:39;1.25;;;0.88;;
7375;SDS011;3728;42.266;24.944;2023-03-12T15:51:32;7.20;;;1.23;;
7375;SDS011;3728;42.266;24.944;2023-03-12T15:56:42;2.43;;;1.17;;
7375;SDS011;3728;42.266;24.944;2023-03-12T16:01:43;1.13;;;1.00;;
7375;SDS011;3728;42.266;24.944;2023-03-12T16:04:13;1.83;;;0.90;;
7375;SDS011;3728;42.266;24.944;2023-03-12T16:06:41;5.50;;;1.03;;
7375;SDS011;3728;42.266;24.944;2023-03-12T16:09:20;2.20;;;1.40;;
7375;SDS011;3728;42.266;24.944;2023-03-12T16:11:54;0.77;;;0.77;;
7375;SDS011;3728;42.266;24.944;2023-03-12T16:14:23;1.10;;;1.00;;
7375;SDS011;3728;42.266;24.944;2023-03-12T16:16:57;1.70;;;1.30;;
7375;SDS011;3728;42.266;24.944;2023-03-12T16:19:26;1.17;;;1.00;;
7375;SDS011;3728;42.266;24.944;2023-03-12T16:21:57;0.90;;;0.90;;
7375;SDS011;3728;42.266;24.944;2023-03-12T16:24:25;0.83;;;0.80;;
7375;SDS011;3728;42.266;24.944;2023-03-12T16:26:55;1.87;;;0.90;;
7375;SDS011;3728;42.266;24.944;2023-03-12T16:29:31;1.00;;;0.90;;
7375;SDS011;3728;42.266;24.944;2023-03-12T16:32:01;0.93;;;0.83;;
7375;SDS011;3728;42.266;24.944;2023-03-12T16:34:38;1.17;;;0.87;;
7375;SDS011;3728;42.266;24.944;2023-03-12T16:37:12;1.70;;;0.83;;
7375;SDS011;3728;42.266;24.944;2023-03-12T16:39:40;2.27;;;0.80;;
7375;SDS011;3728;42.266;24.944;2023-03-12T16:42:13;2.23;;;0.93;;
7375;SDS011;3728;42.266;24.944;2023-03-12T16:44:43;0.83;;;0.80;;
7375;SDS011;3728;42.266;24.944;2023-03-12T16:47:12;0.90;;;0.90;;
7375;SDS011;3728;42.266;24.944;2023-03-12T16:49:42;1.00;;;1.00;;
7375;SDS011;3728;42.266;24.944;2023-03-12T16:52:22;2.90;;;1.33;;
7375;SDS011;3728;42.266;24.944;2023-03-12T16:54:53;1.97;;;1.23;;
7375;SDS011;3728;42.266;24.944;2023-03-12T16:57:25;6.73;;;1.10;;
7375;SDS011;3728;42.266;24.944;2023-03-12T17:00:01;3.17;;;1.70;;
7375;SDS011;3728;42.266;24.944;2023-03-12T17:02:33;2.33;;;1.30;;
7375;SDS011;3728;42.266;24.944;2023-03-12T17:05:03;1.80;;;1.40;;
7375;SDS011;3728;42.266;24.944;2023-03-12T17:07:31;2.60;;;1.50;;
7375;SDS011;3728;42.266;24.944;2023-03-12T17:09:59;11.83;;;8.90;;
7375;SDS011;3728;42.266;24.944;2023-03-12T17:12:36;6.80;;;4.20;;
7375;SDS011;3728;42.266;24.944;2023-03-12T17:18:05;44.00;;;28.73;;
7375;SDS011;3728;42.266;24.944;2023-03-12T17:20:38;38.80;;;28.83;;
7375;SDS011;3728;42.266;24.944;2023-03-12T17:23:09;23.80;;;20.87;;
7375;SDS011;3728;42.266;24.944;2023-03-12T17:25:42;10.13;;;6.53;;
7375;SDS011;3728;42.266;24.944;2023-03-12T17:28:11;4.43;;;3.83;;
7375;SDS011;3728;42.266;24.944;2023-03-12T17:30:41;4.37;;;2.93;;
7375;SDS011;3728;42.266;24.944;2023-03-12T17:33:11;6.70;;;4.47;;
7375;SDS011;3728;42.266;24.944;2023-03-12T17:36:03;10.00;;;5.73;;
7375;SDS011;3728;42.266;24.944;2023-03-12T17:38:37;11.87;;;7.50;;
7375;SDS011;3728;42.266;24.944;2023-03-12T17:41:07;10.80;;;7.80;;
7375;SDS011;3728;42.266;24.944;2023-03-12T17:43:53;46.87;;;21.30;;
7375;SDS011;3728;42.266;24.944;2023-03-12T17:46:27;34.03;;;16.40;;